createdAt,value
2016-04-04T00:00:50.046Z,997.16
2016-04-04T00:01:50.065Z,997.17
2016-04-04T00:02:50.083Z,997.14
2016-04-04T00:03:50.118Z,997.16
2016-04-04T00:04:50.135Z,997.2
2016-04-04T00:05:50.170Z,997.17
2016-04-04T00:06:50.187Z,997.18
2016-04-04T00:07:50.222Z,997.17
2016-04-04T00:08:50.240Z,997.2
2016-04-04T00:09:50.258Z,997.16
2016-04-04T00:10:50.292Z,997.19
2016-04-04T00:11:50.311Z,997.15
2016-04-04T00:12:50.329Z,997.14
2016-04-04T00:13:50.363Z,997.12
2016-04-04T00:14:50.381Z,997.08
2016-04-04T00:15:50.415Z,997.07
2016-04-04T00:16:50.434Z,997.02
2016-04-04T00:17:50.452Z,997.03
2016-04-04T00:18:50.485Z,997.01
2016-04-04T00:19:50.504Z,997.01
2016-04-04T00:20:50.522Z,997.01
2016-04-04T00:21:50.556Z,996.99
2016-04-04T00:22:50.575Z,996.94
2016-04-04T00:23:50.608Z,996.96
2016-04-04T00:24:50.627Z,996.97
2016-04-04T00:25:50.645Z,996.98
2016-04-04T00:26:50.679Z,996.98
2016-04-04T00:27:50.697Z,996.95
2016-04-04T00:28:50.732Z,996.98
2016-04-04T00:29:50.749Z,996.93
2016-04-04T00:30:50.768Z,996.97
2016-04-04T00:31:50.786Z,996.93
2016-04-04T00:32:50.820Z,996.88
2016-04-04T00:33:50.854Z,996.83
2016-04-04T00:34:50.873Z,996.82
2016-04-04T00:35:50.890Z,996.79
2016-04-04T00:36:50.909Z,996.77
2016-04-04T00:37:50.942Z,996.76
2016-04-04T00:38:50.961Z,996.76
2016-04-04T00:39:50.996Z,996.74
2016-04-04T00:40:51.013Z,996.78
2016-04-04T00:41:51.048Z,996.76
2016-04-04T00:42:51.066Z,996.76
2016-04-04T00:43:51.083Z,996.76
2016-04-04T00:44:51.102Z,996.76
2016-04-04T00:45:51.137Z,996.74
2016-04-04T00:46:51.155Z,996.71
2016-04-04T00:47:51.189Z,996.72
2016-04-04T00:48:51.207Z,996.7
2016-04-04T00:49:51.225Z,996.67
2016-04-04T00:50:51.258Z,996.69
2016-04-04T00:51:51.277Z,996.67
2016-04-04T00:52:51.311Z,996.66
2016-04-04T00:53:51.330Z,996.69
2016-04-04T00:54:51.348Z,996.65
2016-04-04T00:55:51.366Z,996.66
2016-04-04T00:56:51.400Z,996.66
2016-04-04T00:57:51.419Z,996.64
2016-04-04T00:58:57.721Z,996.63
2016-04-04T00:59:51.471Z,996.62
2016-04-04T01:00:51.489Z,996.61
2016-04-04T01:01:51.523Z,996.61
2016-04-04T01:02:51.541Z,996.62
2016-04-04T01:03:51.576Z,996.61
2016-04-04T01:04:51.594Z,996.59
2016-04-04T01:05:51.612Z,996.58
2016-04-04T01:06:51.631Z,996.59
2016-04-04T01:07:51.665Z,996.55
2016-04-04T01:08:51.683Z,996.56
2016-04-04T01:09:51.701Z,996.58
2016-04-04T01:10:51.735Z,996.55
2016-04-04T01:11:51.754Z,996.52
2016-04-04T01:12:51.772Z,996.56
2016-04-04T01:13:51.806Z,996.58
2016-04-04T01:14:51.823Z,996.56
2016-04-04T01:15:51.842Z,996.6
2016-04-04T01:16:51.876Z,996.54
2016-04-04T01:17:51.894Z,996.53
2016-04-04T01:18:51.928Z,996.53
2016-04-04T01:19:51.947Z,996.51
2016-04-04T01:20:51.964Z,996.48
2016-04-04T01:21:51.999Z,996.51
2016-04-04T01:22:52.017Z,996.48
2016-04-04T01:23:52.036Z,996.49
2016-04-04T01:24:52.070Z,996.48
2016-04-04T01:25:52.088Z,996.44
2016-04-04T01:26:52.106Z,996.41
2016-04-04T01:27:52.140Z,996.39
2016-04-04T01:28:52.158Z,996.35
2016-04-04T01:29:52.176Z,996.38
2016-04-04T01:30:52.210Z,996.34
2016-04-04T01:31:52.229Z,996.3
2016-04-04T01:32:52.247Z,996.28
2016-04-04T01:33:52.282Z,996.29
2016-04-04T01:34:52.299Z,996.27
2016-04-04T01:35:52.318Z,996.26
2016-04-04T01:36:52.352Z,996.25
2016-04-04T01:37:52.371Z,996.26
2016-04-04T01:38:52.388Z,996.25
2016-04-04T01:39:52.423Z,996.24
2016-04-04T01:40:52.441Z,996.21
2016-04-04T01:41:52.459Z,996.15
2016-04-04T01:42:52.493Z,996.14
2016-04-04T01:43:52.511Z,996.12
2016-04-04T01:44:52.529Z,996.09
2016-04-04T01:45:52.564Z,996.07
2016-04-04T01:46:52.581Z,996.1
2016-04-04T01:47:52.600Z,996.11
2016-04-04T01:48:52.633Z,996.1
2016-04-04T01:49:52.652Z,996.07
2016-04-04T01:50:52.670Z,996.08
2016-04-04T01:51:52.688Z,996.1
2016-04-04T01:52:52.722Z,996.09
2016-04-04T01:53:52.741Z,996.15
2016-04-04T01:54:52.774Z,996.18
2016-04-04T01:55:52.793Z,996.21
2016-04-04T01:56:52.811Z,996.22
2016-04-04T01:57:52.846Z,996.25
2016-04-04T01:58:52.863Z,996.24
2016-04-04T01:59:52.882Z,996.3
2016-04-04T02:00:52.905Z,996.29
2016-04-04T02:01:52.940Z,996.28
2016-04-04T02:02:52.958Z,996.27
2016-04-04T02:03:52.976Z,996.27
2016-04-04T02:04:53.010Z,996.3
2016-04-04T02:05:53.028Z,996.29
2016-04-04T02:06:53.046Z,996.27
2016-04-04T02:07:53.065Z,996.27
2016-04-04T02:08:53.098Z,996.21
2016-04-04T02:09:53.117Z,996.2
2016-04-04T02:10:53.136Z,996.22
2016-04-04T02:11:53.170Z,996.2
2016-04-04T02:12:53.187Z,996.21
2016-04-04T02:13:53.206Z,996.2
2016-04-04T02:14:53.240Z,996.19
2016-04-04T02:15:53.259Z,996.23
2016-04-04T02:16:53.277Z,996.21
2016-04-04T02:17:53.295Z,996.22
2016-04-04T02:18:53.328Z,996.21
2016-04-04T02:19:53.347Z,996.23
2016-04-04T02:20:53.381Z,996.23
2016-04-04T02:21:53.400Z,996.18
2016-04-04T02:22:53.419Z,996.21
2016-04-04T02:23:53.436Z,996.19
2016-04-04T02:24:53.470Z,996.21
2016-04-04T02:25:53.488Z,996.17
2016-04-04T02:26:53.522Z,996.18
2016-04-04T02:27:53.525Z,996.16
2016-04-04T02:28:53.560Z,996.14
2016-04-04T02:29:53.577Z,996.12
2016-04-04T02:30:53.596Z,996.1
2016-04-04T02:31:53.630Z,996.09
2016-04-04T02:32:53.648Z,996.04
2016-04-04T02:33:53.666Z,996.04
2016-04-04T02:34:53.701Z,996.04
2016-04-04T02:35:53.718Z,995.97
2016-04-04T02:36:53.737Z,995.97
2016-04-04T02:37:53.755Z,996.01
2016-04-04T02:38:53.789Z,995.95
2016-04-04T02:39:53.807Z,995.98
2016-04-04T02:40:53.826Z,995.93
2016-04-04T02:41:53.859Z,995.99
2016-04-04T02:42:53.878Z,995.93
2016-04-04T02:43:53.896Z,995.97
2016-04-04T02:44:53.931Z,995.95
2016-04-04T02:45:53.948Z,995.94
2016-04-04T02:46:53.967Z,995.95
2016-04-04T02:47:53.986Z,995.92
2016-04-04T02:48:54.019Z,995.92
2016-04-04T02:49:54.037Z,995.87
2016-04-04T02:50:54.055Z,995.86
2016-04-04T02:51:54.089Z,995.87
2016-04-04T02:52:54.108Z,995.83
2016-04-04T02:53:54.141Z,995.84
2016-04-04T02:54:54.160Z,995.77
2016-04-04T02:55:54.178Z,995.77
2016-04-04T02:56:54.212Z,995.78
2016-04-04T02:57:54.231Z,995.74
2016-04-04T02:58:54.249Z,995.73
2016-04-04T02:59:54.283Z,995.71
2016-04-04T03:00:54.301Z,995.71
2016-04-04T03:01:54.320Z,995.72
2016-04-04T03:02:54.338Z,995.7
2016-04-04T03:03:54.371Z,995.69
2016-04-04T03:04:54.391Z,995.72
2016-04-04T03:05:54.409Z,995.7
2016-04-04T03:06:54.427Z,995.76
2016-04-04T03:07:54.454Z,995.7
2016-04-04T03:08:54.472Z,995.69
2016-04-04T03:09:54.507Z,995.71
2016-04-04T03:10:54.524Z,995.74
2016-04-04T03:11:54.543Z,995.78
2016-04-04T03:12:54.577Z,995.75
2016-04-04T03:13:54.610Z,995.76
2016-04-04T03:14:54.598Z,995.81
2016-04-04T03:15:54.632Z,995.83
2016-04-04T03:16:54.665Z,995.8
2016-04-04T03:17:54.684Z,995.83
2016-04-04T03:18:54.718Z,995.78
2016-04-04T03:19:54.721Z,995.81
2016-04-04T03:20:54.754Z,995.83
2016-04-04T03:21:54.773Z,995.79
2016-04-04T03:22:54.792Z,995.84
2016-04-04T03:23:54.809Z,995.82
2016-04-04T03:24:54.843Z,995.84
2016-04-04T03:25:54.862Z,995.79
2016-04-04T03:26:54.880Z,995.79
2016-04-04T03:27:54.914Z,995.76
2016-04-04T03:28:54.933Z,995.79
2016-04-04T03:29:54.950Z,995.8
2016-04-04T03:30:54.984Z,995.77
2016-04-04T03:31:55.003Z,995.78
2016-04-04T03:32:55.021Z,995.77
2016-04-04T03:33:55.039Z,995.76
2016-04-04T03:34:55.058Z,995.75
2016-04-04T03:35:55.092Z,995.71
2016-04-04T03:36:55.110Z,995.74
2016-04-04T03:37:55.128Z,995.72
2016-04-04T03:38:55.178Z,995.72
2016-04-04T03:39:55.166Z,995.7
2016-04-04T03:40:55.183Z,995.66
2016-04-04T03:41:55.217Z,995.74
2016-04-04T03:42:55.236Z,995.7
2016-04-04T03:43:55.254Z,995.71
2016-04-04T03:44:55.271Z,995.69
2016-04-04T03:45:55.307Z,995.69
2016-04-04T03:46:55.325Z,995.68
2016-04-04T03:47:55.343Z,995.65
2016-04-04T03:48:55.361Z,995.68
2016-04-04T03:49:55.396Z,995.66
2016-04-04T03:50:55.413Z,995.62
2016-04-04T03:51:55.431Z,995.61
2016-04-04T03:52:55.465Z,995.6
2016-04-04T03:53:55.484Z,995.59
2016-04-04T03:54:55.503Z,995.53
2016-04-04T03:55:55.520Z,995.55
2016-04-04T03:56:55.539Z,995.56
2016-04-04T03:57:55.573Z,995.53
2016-04-04T03:58:55.592Z,995.56
2016-04-04T03:59:55.609Z,995.56
2016-04-04T04:00:55.644Z,995.55
2016-04-04T04:01:55.662Z,995.52
2016-04-04T04:02:55.680Z,995.48
2016-04-04T04:03:55.698Z,995.48
2016-04-04T04:04:55.733Z,995.51
2016-04-04T04:05:55.751Z,995.5
2016-04-04T04:06:55.770Z,995.49
2016-04-04T04:07:55.789Z,995.51
2016-04-04T04:08:55.822Z,995.45
2016-04-04T04:09:55.840Z,995.42
2016-04-04T04:10:55.859Z,995.41
2016-04-04T04:11:55.877Z,995.39
2016-04-04T04:12:55.911Z,995.41
2016-04-04T04:13:55.930Z,995.42
2016-04-04T04:14:55.948Z,995.42
2016-04-04T04:15:55.966Z,995.46
2016-04-04T04:16:56.000Z,995.48
2016-04-04T04:17:56.019Z,995.53
2016-04-04T04:18:56.036Z,995.58
2016-04-04T04:19:56.055Z,995.58
2016-04-04T04:20:56.073Z,995.58
2016-04-04T04:21:56.108Z,995.57
2016-04-04T04:22:56.125Z,995.57
2016-04-04T04:23:56.143Z,995.52
2016-04-04T04:24:56.178Z,995.51
2016-04-04T04:25:56.196Z,995.44
2016-04-04T04:26:56.215Z,995.44
2016-04-04T04:27:56.232Z,995.42
2016-04-04T04:28:56.252Z,995.44
2016-04-04T04:29:56.285Z,995.47
2016-04-04T04:30:56.303Z,995.47
2016-04-04T04:31:56.321Z,995.48
2016-04-04T04:32:56.339Z,995.49
2016-04-04T04:33:56.359Z,995.49
2016-04-04T04:34:56.392Z,995.51
2016-04-04T04:35:56.410Z,995.44
2016-04-04T04:36:56.429Z,995.43
2016-04-04T04:37:56.447Z,995.42
2016-04-04T04:38:56.481Z,995.37
2016-04-04T04:39:56.499Z,995.4
2016-04-04T04:40:56.518Z,995.35
2016-04-04T04:41:56.536Z,995.32
2016-04-04T04:42:56.570Z,995.35
2016-04-04T04:43:56.588Z,995.33
2016-04-04T04:44:56.606Z,995.31
2016-04-04T04:45:56.625Z,995.34
2016-04-04T04:46:56.643Z,995.35
2016-04-04T04:47:56.677Z,995.37
2016-04-04T04:48:56.695Z,995.39
2016-04-04T04:49:56.714Z,995.37
2016-04-04T04:50:56.732Z,995.36
2016-04-04T04:51:56.797Z,995.35
2016-04-04T04:52:56.785Z,995.31
2016-04-04T04:53:56.802Z,995.29
2016-04-04T04:54:56.821Z,995.28
2016-04-04T04:55:56.870Z,995.3
2016-04-04T04:56:56.873Z,995.3
2016-04-04T04:57:56.891Z,995.37
2016-04-04T04:58:56.910Z,995.38
2016-04-04T04:59:56.943Z,995.41
2016-04-04T05:00:56.962Z,995.41
2016-04-04T05:01:56.980Z,995.46
2016-04-04T05:02:56.998Z,995.43
2016-04-04T05:03:57.033Z,995.39
2016-04-04T05:04:57.051Z,995.4
2016-04-04T05:05:57.070Z,995.37
2016-04-04T05:06:57.087Z,995.34
2016-04-04T05:07:57.106Z,995.38
2016-04-04T05:08:57.140Z,995.35
2016-04-04T05:09:57.158Z,995.33
2016-04-04T05:10:57.176Z,995.31
2016-04-04T05:11:57.194Z,995.3
2016-04-04T05:12:57.214Z,995.31
2016-04-04T05:13:57.247Z,995.26
2016-04-04T05:14:57.264Z,995.3
2016-04-04T05:15:57.284Z,995.26
2016-04-04T05:16:57.303Z,995.28
2016-04-04T05:17:57.336Z,995.24
2016-04-04T05:18:57.354Z,995.28
2016-04-04T05:19:57.373Z,995.29
2016-04-04T05:20:57.391Z,995.3
2016-04-04T05:21:57.424Z,995.28
2016-04-04T05:22:57.443Z,995.38
2016-04-04T05:23:57.464Z,995.38
2016-04-04T05:24:57.480Z,995.36
2016-04-04T05:25:57.498Z,995.36
2016-04-04T05:26:57.521Z,995.39
2016-04-04T05:27:57.550Z,995.35
2016-04-04T05:28:57.568Z,995.38
2016-04-04T05:29:57.587Z,995.39
2016-04-04T05:30:57.621Z,995.39
2016-04-04T05:31:57.640Z,995.38
2016-04-04T05:32:57.673Z,995.39
2016-04-04T05:33:57.676Z,995.41
2016-04-04T05:34:57.740Z,995.42
2016-04-04T05:35:57.728Z,995.44
2016-04-04T05:36:57.746Z,995.46
2016-04-04T05:37:57.765Z,995.45
2016-04-04T05:38:57.784Z,995.43
2016-04-04T05:39:57.817Z,995.46
2016-04-04T05:40:57.835Z,995.43
2016-04-04T05:41:57.853Z,995.42
2016-04-04T05:42:57.872Z,995.44
2016-04-04T05:43:57.890Z,995.44
2016-04-04T05:44:57.955Z,995.42
2016-04-04T05:45:57.943Z,995.39
2016-04-04T05:46:57.976Z,995.37
2016-04-04T05:47:57.995Z,995.39
2016-04-04T05:48:57.998Z,995.38
2016-04-04T05:49:58.031Z,995.34
2016-04-04T05:50:58.050Z,995.39
2016-04-04T05:51:58.083Z,995.35
2016-04-04T05:52:58.102Z,995.38
2016-04-04T05:53:58.119Z,995.45
2016-04-04T05:54:58.139Z,995.41
2016-04-04T05:55:58.157Z,995.44
2016-04-04T05:56:58.174Z,995.43
2016-04-04T05:57:58.210Z,995.43
2016-04-04T05:58:58.228Z,995.48
2016-04-04T05:59:58.246Z,995.46
2016-04-04T06:00:58.263Z,995.5
2016-04-04T06:01:58.298Z,995.5
2016-04-04T06:02:58.316Z,995.52
2016-04-04T06:03:58.334Z,995.49
2016-04-04T06:04:58.353Z,995.49
2016-04-04T06:05:58.371Z,995.5
2016-04-04T06:06:58.390Z,995.49
2016-04-04T06:07:58.423Z,995.46
2016-04-04T06:08:58.442Z,995.48
2016-04-04T06:09:58.460Z,995.48
2016-04-04T06:10:58.478Z,995.5
2016-04-04T06:11:58.497Z,995.51
2016-04-04T06:12:58.531Z,995.45
2016-04-04T06:13:58.548Z,995.52
2016-04-04T06:14:58.567Z,995.5
2016-04-04T06:15:58.586Z,995.48
2016-04-04T06:16:58.619Z,995.51
2016-04-04T06:17:58.638Z,995.54
2016-04-04T06:18:58.656Z,995.57
2016-04-04T06:19:58.675Z,995.56
2016-04-04T06:20:58.739Z,995.59
2016-04-04T06:21:58.742Z,995.59
2016-04-04T06:22:58.745Z,995.57
2016-04-04T06:23:58.763Z,995.55
2016-04-04T06:24:58.782Z,995.52
2016-04-04T06:25:58.815Z,995.56
2016-04-04T06:26:58.833Z,995.5
2016-04-04T06:27:58.852Z,995.54
2016-04-04T06:28:58.870Z,995.54
2016-04-04T06:29:58.889Z,995.53
2016-04-04T06:30:58.923Z,995.51
2016-04-04T06:31:58.941Z,995.51
2016-04-04T06:32:58.959Z,995.49
2016-04-04T06:33:58.978Z,995.48
2016-04-04T06:34:59.012Z,995.54
2016-04-04T06:35:59.029Z,995.51
2016-04-04T06:36:59.049Z,995.52
2016-04-04T06:37:59.067Z,995.48
2016-04-04T06:38:59.085Z,995.5
2016-04-04T06:39:59.118Z,995.54
2016-04-04T06:40:59.137Z,995.52
2016-04-04T06:41:59.156Z,995.54
2016-04-04T06:42:59.173Z,995.57
2016-04-04T06:43:59.208Z,995.61
2016-04-04T06:44:59.226Z,995.62
2016-04-04T06:45:59.245Z,995.63
2016-04-04T06:46:59.262Z,995.67
2016-04-04T06:47:59.297Z,995.7
2016-04-04T06:48:59.315Z,995.69
2016-04-04T06:49:59.333Z,995.68
2016-04-04T06:50:59.352Z,995.66
2016-04-04T06:51:59.369Z,995.61
2016-04-04T06:52:59.403Z,995.61
2016-04-04T06:53:59.531Z,995.59
2016-04-04T06:54:59.534Z,995.58
2016-04-04T06:55:59.536Z,995.53
2016-04-04T06:56:59.539Z,995.56
2016-04-04T06:57:59.542Z,995.59
2016-04-04T06:58:59.560Z,995.57
2016-04-04T06:59:59.563Z,995.57
2016-04-04T07:00:59.680Z,995.55
2016-04-04T07:01:59.699Z,995.58
2016-04-04T07:02:59.717Z,995.65
2016-04-04T07:03:59.720Z,995.65
2016-04-04T07:04:59.753Z,995.64
2016-04-04T07:05:59.757Z,995.67
2016-04-04T07:06:59.774Z,995.66
2016-04-04T07:07:59.824Z,995.66
2016-04-04T07:08:59.826Z,995.64
2016-04-04T07:09:59.829Z,995.64
2016-04-04T07:10:59.831Z,995.66
2016-04-04T07:11:59.850Z,995.64
2016-04-04T07:12:59.853Z,995.62
2016-04-04T07:13:59.855Z,995.6
2016-04-04T07:14:59.890Z,995.64
2016-04-04T07:15:59.908Z,995.61
2016-04-04T07:16:59.925Z,995.6
2016-04-04T07:17:59.944Z,995.58
2016-04-04T07:18:59.978Z,995.58
2016-04-04T07:19:59.997Z,995.62
2016-04-04T07:21:00.015Z,995.61
2016-04-04T07:22:00.034Z,995.62
2016-04-04T07:23:00.052Z,995.56
2016-04-04T07:24:00.086Z,995.57
2016-04-04T07:25:00.104Z,995.53
2016-04-04T07:26:00.122Z,995.52
2016-04-04T07:27:00.157Z,995.53
2016-04-04T07:28:00.175Z,995.55
2016-04-04T07:29:00.193Z,995.51
2016-04-04T07:30:00.210Z,995.53
2016-04-04T07:31:00.246Z,995.54
2016-04-04T07:32:00.264Z,995.53
2016-04-04T07:33:00.282Z,995.54
2016-04-04T07:34:00.300Z,995.56
2016-04-04T07:35:00.335Z,995.57
2016-04-04T07:36:00.351Z,995.57
2016-04-04T07:37:00.371Z,995.57
2016-04-04T07:38:00.389Z,995.61
2016-04-04T07:39:00.423Z,995.64
2016-04-04T07:40:00.442Z,995.61
2016-04-04T07:41:00.460Z,995.62
2016-04-04T07:42:00.493Z,995.6
2016-04-04T07:43:00.511Z,995.66
2016-04-04T07:44:00.531Z,995.66
2016-04-04T07:45:00.549Z,995.66
2016-04-04T07:46:00.583Z,995.71
2016-04-04T07:47:00.600Z,995.69
2016-04-04T07:48:00.619Z,995.7
2016-04-04T07:49:00.653Z,995.68
2016-04-04T07:50:00.672Z,995.69
2016-04-04T07:51:00.689Z,995.67
2016-04-04T07:52:00.724Z,995.71
2016-04-04T07:53:00.741Z,995.65
2016-04-04T07:54:00.761Z,995.68
2016-04-04T07:55:00.778Z,995.71
2016-04-04T07:56:00.796Z,995.72
2016-04-04T07:57:00.831Z,995.69
2016-04-04T07:58:00.849Z,995.69
2016-04-04T07:59:00.868Z,995.67
2016-04-04T08:00:00.901Z,995.65
2016-04-04T08:01:00.919Z,995.65
2016-04-04T08:02:00.937Z,995.59
2016-04-04T08:03:00.972Z,995.62
2016-04-04T08:04:01.006Z,995.61
2016-04-04T08:05:01.009Z,995.59
2016-04-04T08:06:01.043Z,995.6
2016-04-04T08:07:01.061Z,995.62
2016-04-04T08:08:01.079Z,995.6
2016-04-04T08:09:01.097Z,995.6
2016-04-04T08:10:01.131Z,995.62
2016-04-04T08:11:01.150Z,995.61
2016-04-04T08:12:01.184Z,995.57
2016-04-04T08:13:01.201Z,995.62
2016-04-04T08:14:01.220Z,995.58
2016-04-04T08:15:01.238Z,995.57
2016-04-04T08:16:01.272Z,995.56
2016-04-04T08:17:01.291Z,995.57
2016-04-04T08:18:01.309Z,995.54
2016-04-04T08:19:01.343Z,995.55
2016-04-04T08:20:01.361Z,995.54
2016-04-04T08:21:01.380Z,995.56
2016-04-04T08:22:01.414Z,995.56
2016-04-04T08:23:01.432Z,995.54
2016-04-04T08:24:01.466Z,995.51
2016-04-04T08:25:01.484Z,995.52
2016-04-04T08:26:01.503Z,995.47
2016-04-04T08:27:01.521Z,995.45
2016-04-04T08:28:01.555Z,995.47
2016-04-04T08:29:01.573Z,995.45
2016-04-04T08:30:01.592Z,995.43
2016-04-04T08:31:01.625Z,995.44
2016-04-04T08:32:01.660Z,995.51
2016-04-04T08:33:01.662Z,995.48
2016-04-04T08:34:01.686Z,995.51
2016-04-04T08:35:01.693Z,995.53
2016-04-04T08:36:01.715Z,995.55
2016-04-04T08:37:01.721Z,995.57
2016-04-04T08:38:01.743Z,995.54
2016-04-04T08:39:01.756Z,995.56
2016-04-04T08:40:01.770Z,995.57
2016-04-04T08:41:01.784Z,995.56
2016-04-04T08:42:01.814Z,995.55
2016-04-04T08:43:01.843Z,995.57
2016-04-04T08:44:01.844Z,995.58
2016-04-04T08:45:01.876Z,995.57
2016-04-04T08:46:01.894Z,995.57
2016-04-04T08:47:01.926Z,995.55
2016-04-04T08:48:01.942Z,995.54
2016-04-04T08:49:01.960Z,995.54
2016-04-04T08:50:01.993Z,995.51
2016-04-04T08:51:02.010Z,995.5
2016-04-04T08:52:02.044Z,995.48
2016-04-04T08:53:02.061Z,995.52
2016-04-04T08:54:02.079Z,995.52
2016-04-04T08:55:02.097Z,995.48
2016-04-04T08:56:02.131Z,995.47
2016-04-04T08:57:02.148Z,995.44
2016-04-04T08:58:02.182Z,995.44
2016-04-04T08:59:02.200Z,995.42
2016-04-04T09:00:02.234Z,995.38
2016-04-04T09:01:02.253Z,995.42
2016-04-04T09:02:02.286Z,995.4
2016-04-04T09:03:02.288Z,995.42
2016-04-04T09:04:02.324Z,995.42
2016-04-04T09:05:02.341Z,995.47
2016-04-04T09:06:02.375Z,995.46
2016-04-04T09:07:02.409Z,995.5
2016-04-04T09:08:02.427Z,995.55
2016-04-04T09:09:02.446Z,995.6
2016-04-04T09:10:02.465Z,995.64
2016-04-04T09:11:02.498Z,995.66
2016-04-04T09:12:02.516Z,995.71
2016-04-04T09:13:02.550Z,995.73
2016-04-04T09:14:02.568Z,995.73
2016-04-04T09:15:02.587Z,995.74
2016-04-04T09:16:02.621Z,995.79
2016-04-04T09:17:02.654Z,995.77
2016-04-04T09:18:02.673Z,995.79
2016-04-04T09:19:02.692Z,995.86
2016-04-04T09:20:02.709Z,995.85
2016-04-04T09:21:02.744Z,995.87
2016-04-04T09:22:02.762Z,995.86
2016-04-04T09:23:02.795Z,995.87
2016-04-04T09:24:02.814Z,995.86
2016-04-04T09:25:02.833Z,995.85
2016-04-04T09:26:02.867Z,995.85
2016-04-04T09:27:02.885Z,995.86
2016-04-04T09:28:02.919Z,995.9
2016-04-04T09:29:02.937Z,995.84
2016-04-04T09:30:02.971Z,995.84
2016-04-04T09:31:02.989Z,995.84
2016-04-04T09:32:03.008Z,995.82
2016-04-04T09:33:03.041Z,995.84
2016-04-04T09:34:03.060Z,995.87
2016-04-04T09:35:03.078Z,995.9
2016-04-04T09:36:03.112Z,995.85
2016-04-04T09:37:03.146Z,995.87
2016-04-04T09:38:03.165Z,995.84
2016-04-04T09:39:03.183Z,995.84
2016-04-04T09:40:03.232Z,995.84
2016-04-04T09:41:03.235Z,995.88
2016-04-04T09:42:03.268Z,995.89
2016-04-04T09:43:03.287Z,995.85
2016-04-04T09:44:03.306Z,995.86
2016-04-04T09:45:03.340Z,995.89
2016-04-04T09:46:03.390Z,995.91
2016-04-04T09:47:03.392Z,995.88
2016-04-04T09:48:03.425Z,995.85
2016-04-04T09:49:03.445Z,995.83
2016-04-04T09:50:03.463Z,995.82
2016-04-04T09:51:03.496Z,995.85
2016-04-04T09:52:03.514Z,995.88
2016-04-04T09:53:03.533Z,995.82
2016-04-04T09:54:03.566Z,995.86
2016-04-04T09:55:03.585Z,995.86
2016-04-04T09:56:03.620Z,995.86
2016-04-04T09:57:03.637Z,995.81
2016-04-04T09:58:03.672Z,995.8
2016-04-04T09:59:03.689Z,995.76
2016-04-04T10:00:03.724Z,995.77
2016-04-04T10:01:03.742Z,995.71
2016-04-04T10:02:03.776Z,995.66
2016-04-04T10:03:03.795Z,995.67
2016-04-04T10:04:03.828Z,995.63
2016-04-04T10:05:03.846Z,995.66
2016-04-04T10:06:03.880Z,995.65
2016-04-04T10:07:03.899Z,995.62
2016-04-04T10:08:03.933Z,995.65
2016-04-04T10:09:03.951Z,995.72
2016-04-04T10:10:03.974Z,995.73
2016-04-04T10:11:04.007Z,995.73
2016-04-04T10:12:04.027Z,995.72
2016-04-04T10:13:04.060Z,995.73
2016-04-04T10:14:04.079Z,995.73
2016-04-04T10:15:04.112Z,995.69
2016-04-04T10:16:04.146Z,995.68
2016-04-04T10:17:04.165Z,995.67
2016-04-04T10:18:04.184Z,995.68
2016-04-04T10:19:04.217Z,995.65
2016-04-04T10:20:04.236Z,995.64
2016-04-04T10:21:04.269Z,995.68
2016-04-04T10:22:04.287Z,995.66
2016-04-04T10:23:04.353Z,995.7
2016-04-04T10:24:04.372Z,995.69
2016-04-04T10:25:04.374Z,995.67
2016-04-04T10:26:04.408Z,995.7
2016-04-04T10:27:04.489Z,995.67
2016-04-04T10:28:04.492Z,995.68
2016-04-04T10:29:04.510Z,995.66
2016-04-04T10:30:04.513Z,995.67
2016-04-04T10:31:04.530Z,995.62
2016-04-04T10:32:04.549Z,995.64
2016-04-04T10:33:04.582Z,995.65
2016-04-04T10:34:04.602Z,995.57
2016-04-04T10:35:04.636Z,995.56
2016-04-04T10:36:04.669Z,995.55
2016-04-04T10:37:04.687Z,995.61
2016-04-04T10:38:04.705Z,995.61
2016-04-04T10:39:04.739Z,995.66
2016-04-04T10:40:04.773Z,995.63
2016-04-04T10:41:04.793Z,995.63
2016-04-04T10:42:04.826Z,995.62
2016-04-04T10:43:04.860Z,995.63
2016-04-04T10:44:04.878Z,995.64
2016-04-04T10:45:04.912Z,995.63
2016-04-04T10:46:04.931Z,995.69
2016-04-04T10:47:04.949Z,995.64
2016-04-04T10:48:04.982Z,995.62
2016-04-04T10:49:05.017Z,995.62
2016-04-04T10:50:05.034Z,995.63
2016-04-04T10:51:05.069Z,995.65
2016-04-04T10:52:05.103Z,995.62
2016-04-04T10:53:05.121Z,995.68
2016-04-04T10:54:05.155Z,995.67
2016-04-04T10:55:05.205Z,995.65
2016-04-04T10:56:05.207Z,995.64
2016-04-04T10:57:05.225Z,995.63
2016-04-04T10:58:05.259Z,995.65
2016-04-04T10:59:05.294Z,995.65
2016-04-04T11:00:05.311Z,995.59
2016-04-04T11:01:05.346Z,995.58
2016-04-04T11:02:05.364Z,995.57
2016-04-04T11:03:05.398Z,995.56
2016-04-04T11:04:05.432Z,995.59
2016-04-04T11:05:05.450Z,995.55
2016-04-04T11:06:05.484Z,995.56
2016-04-04T11:07:05.503Z,995.53
2016-04-04T11:08:05.536Z,995.53
2016-04-04T11:09:05.565Z,995.5
2016-04-04T11:10:05.598Z,995.5
2016-04-04T11:11:05.617Z,995.49
2016-04-04T11:12:05.650Z,995.56
2016-04-04T11:13:05.669Z,995.6
2016-04-04T11:14:05.703Z,995.51
2016-04-04T11:15:05.737Z,995.53
2016-04-04T11:16:05.755Z,995.54
2016-04-04T11:17:05.789Z,995.55
2016-04-04T11:18:05.823Z,995.52
2016-04-04T11:19:05.842Z,995.58
2016-04-04T11:20:05.875Z,995.62
2016-04-04T11:21:05.909Z,995.56
2016-04-04T11:22:05.928Z,995.54
2016-04-04T11:23:05.962Z,995.58
2016-04-04T11:24:05.995Z,995.57
2016-04-04T11:25:06.014Z,995.56
2016-04-04T11:26:06.048Z,995.55
2016-04-04T11:27:06.066Z,995.51
2016-04-04T11:28:06.100Z,995.49
2016-04-04T11:29:06.134Z,995.5
2016-04-04T11:30:06.152Z,995.5
2016-04-04T11:31:06.186Z,995.51
2016-04-04T11:32:06.220Z,995.53
2016-04-04T11:33:06.238Z,995.52
2016-04-04T11:34:06.271Z,995.54
2016-04-04T11:35:06.306Z,995.56
2016-04-04T11:36:06.324Z,995.55
2016-04-04T11:37:06.358Z,995.56
2016-04-04T11:38:06.392Z,995.57
2016-04-04T11:39:06.416Z,995.6
2016-04-04T11:40:06.450Z,995.6
2016-04-04T11:41:06.468Z,995.62
2016-04-04T11:42:06.501Z,995.58
2016-04-04T11:43:06.536Z,995.61
2016-04-04T11:44:06.554Z,995.64
2016-04-04T11:45:06.588Z,995.62
2016-04-04T11:46:06.622Z,995.64
2016-04-04T11:47:06.655Z,995.61
2016-04-04T11:48:06.674Z,995.64
2016-04-04T11:49:06.708Z,995.64
2016-04-04T11:50:06.741Z,995.58
2016-04-04T11:51:06.760Z,995.6
2016-04-04T11:52:06.794Z,995.63
2016-04-04T11:53:06.828Z,995.67
2016-04-04T11:54:06.846Z,995.62
2016-04-04T11:55:06.881Z,995.61
2016-04-04T11:56:06.914Z,995.66
2016-04-04T11:57:06.949Z,995.62
2016-04-04T11:58:06.967Z,995.6
2016-04-04T11:59:07.001Z,995.62
2016-04-04T12:00:07.035Z,995.55
2016-04-04T12:01:07.068Z,995.61
2016-04-04T12:02:07.087Z,995.59
2016-04-04T12:03:07.121Z,995.56
2016-04-04T12:04:07.139Z,995.61
2016-04-04T12:05:07.173Z,995.59
2016-04-04T12:06:07.206Z,995.6
2016-04-04T12:07:07.240Z,995.56
2016-04-04T12:08:07.259Z,995.57
2016-04-04T12:09:07.292Z,995.55
2016-04-04T12:10:07.327Z,995.51
2016-04-04T12:11:07.361Z,995.56
2016-04-04T12:12:07.379Z,995.53
2016-04-04T12:13:07.414Z,995.52
2016-04-04T12:14:07.448Z,995.52
2016-04-04T12:15:07.465Z,995.5
2016-04-04T12:16:07.500Z,995.47
2016-04-04T12:17:07.533Z,995.48
2016-04-04T12:18:07.567Z,995.48
2016-04-04T12:19:07.601Z,995.42
2016-04-04T12:20:07.619Z,995.41
2016-04-04T12:21:07.654Z,995.41
2016-04-04T12:22:07.688Z,995.39
2016-04-04T12:23:07.722Z,995.38
2016-04-04T12:24:07.740Z,995.37
2016-04-04T12:25:07.774Z,995.38
2016-04-04T12:26:07.808Z,995.35
2016-04-04T12:27:07.827Z,995.36
2016-04-04T12:28:07.860Z,995.36
2016-04-04T12:29:07.894Z,995.39
2016-04-04T12:30:07.927Z,995.36
2016-04-04T12:31:07.946Z,995.33